createdAt,value
2022-10-16T00:01:19.214Z,100255.44
2022-10-16T00:03:47.603Z,100255.66
2022-10-16T00:06:33.492Z,100249.12
2022-10-16T00:09:01.230Z,100249.38
2022-10-16T00:11:31.432Z,100251.03
2022-10-16T00:14:00.780Z,100248.59
2022-10-16T00:16:29.413Z,100247.75
2022-10-16T00:18:57.136Z,100238.94
2022-10-16T00:21:27.406Z,100246.41
2022-10-16T00:24:13.489Z,100245.28
2022-10-16T00:26:41.023Z,100251.59
2022-10-16T00:29:09.815Z,100253.50
2022-10-16T00:31:37.251Z,100251.84
2022-10-16T00:34:04.626Z,100256.78
2022-10-16T00:36:33.100Z,100261.16
2022-10-16T00:39:02.185Z,100266.00
2022-10-16T00:41:31.050Z,100265.44
2022-10-16T00:44:01.084Z,100264.22
2022-10-16T00:46:41.471Z,100269.25
2022-10-16T00:49:14.472Z,100271.59
2022-10-16T00:51:44.703Z,100264.94
2022-10-16T00:54:23.032Z,100268.97
2022-10-16T00:56:51.260Z,100268.41
2022-10-16T00:59:26.427Z,100282.47
2022-10-16T01:01:54.926Z,100280.03
2022-10-16T01:04:23.383Z,100283.31
2022-10-16T01:07:05.979Z,100279.22
2022-10-16T01:09:53.687Z,100285.78
2022-10-16T01:12:38.641Z,100290.59
2022-10-16T01:15:11.995Z,100294.91
2022-10-16T01:17:45.033Z,100297.47
2022-10-16T01:20:22.455Z,100295.19
2022-10-16T01:23:09.534Z,100292.00
2022-10-16T01:25:53.450Z,100296.88
2022-10-16T01:28:24.008Z,100306.44
2022-10-16T01:30:54.043Z,100299.66
2022-10-16T01:33:24.840Z,100296.50
2022-10-16T01:36:04.572Z,100303.19
2022-10-16T01:38:36.238Z,100300.59
2022-10-16T01:41:11.726Z,100305.22
2022-10-16T01:43:42.570Z,100307.12
2022-10-16T01:46:10.891Z,100302.78
2022-10-16T01:48:39.149Z,100312.06
2022-10-16T01:51:11.887Z,100308.84
2022-10-16T01:53:41.405Z,100305.47
2022-10-16T01:56:10.997Z,100302.25
2022-10-16T01:58:47.270Z,100305.84
2022-10-16T02:03:51.380Z,100304.53
2022-10-16T02:06:18.732Z,100309.53
2022-10-16T02:08:46.083Z,100309.25
2022-10-16T02:11:13.727Z,100315.91
2022-10-16T02:13:50.914Z,100321.09
2022-10-16T02:16:18.644Z,100325.72
2022-10-16T02:18:46.062Z,100333.25
2022-10-16T02:21:31.405Z,100328.31
2022-10-16T02:24:04.356Z,100332.03
2022-10-16T02:26:37.620Z,100327.16
2022-10-16T02:29:09.371Z,100326.97
2022-10-16T02:31:40.069Z,100328.47
2022-10-16T02:34:08.092Z,100329.94
2022-10-16T02:36:35.957Z,100329.59
2022-10-16T02:39:04.885Z,100327.66
2022-10-16T02:41:33.088Z,100342.56
2022-10-16T02:44:00.662Z,100339.22
2022-10-16T02:46:28.020Z,100346.44
2022-10-16T02:48:55.603Z,100345.34
2022-10-16T02:51:22.953Z,100348.13
2022-10-16T02:53:50.329Z,100343.69
2022-10-16T02:58:50.130Z,100342.16
2022-10-16T03:01:17.948Z,100349.34
2022-10-16T03:03:45.354Z,100345.59
2022-10-16T03:06:12.668Z,100351.06
2022-10-16T03:08:40.279Z,100346.44
2022-10-16T03:11:07.634Z,100347.97
2022-10-16T03:13:34.971Z,100354.81
2022-10-16T03:16:02.548Z,100348.47
2022-10-16T03:18:29.857Z,100350.00
2022-10-16T03:20:57.218Z,100360.88
2022-10-16T03:23:25.076Z,100361.97
2022-10-16T03:25:52.490Z,100370.19
2022-10-16T03:28:19.897Z,100365.66
2022-10-16T03:30:47.678Z,100374.00
2022-10-16T03:33:15.086Z,100370.56
2022-10-16T03:35:42.419Z,100370.38
2022-10-16T03:38:10.009Z,100371.94
2022-10-16T03:40:37.391Z,100384.88
2022-10-16T03:43:04.887Z,100379.16
2022-10-16T03:45:32.512Z,100380.84
2022-10-16T03:47:59.835Z,100387.53
2022-10-16T03:50:27.173Z,100379.03
2022-10-16T03:52:54.757Z,100385.97
2022-10-16T03:55:22.138Z,100387.62
2022-10-16T03:57:49.448Z,100385.47
2022-10-16T04:00:17.082Z,100379.53
2022-10-16T04:05:17.004Z,100394.28
2022-10-16T04:07:44.605Z,100390.75
2022-10-16T04:10:11.916Z,100393.75
2022-10-16T04:12:39.277Z,100403.84
2022-10-16T04:15:07.231Z,100408.25
2022-10-16T04:17:34.541Z,100401.66
2022-10-16T04:20:01.878Z,100407.03
2022-10-16T04:22:29.477Z,100397.31
2022-10-16T04:24:56.849Z,100389.97
2022-10-16T04:27:24.464Z,100397.75
2022-10-16T04:29:52.246Z,100400.63
2022-10-16T04:32:19.581Z,100398.00
2022-10-16T04:34:46.905Z,100396.75
2022-10-16T04:37:14.501Z,100396.13
2022-10-16T04:39:41.879Z,100401.03
2022-10-16T04:42:09.459Z,100397.22
2022-10-16T04:44:37.048Z,100399.25
2022-10-16T04:47:05.639Z,100404.56
2022-10-16T04:49:32.960Z,100407.31
2022-10-16T04:52:00.561Z,100409.50
2022-10-16T04:54:27.904Z,100412.00
2022-10-16T04:56:55.324Z,100415.91
2022-10-16T04:59:23.278Z,100414.91
2022-10-16T05:01:50.703Z,100410.63
2022-10-16T05:04:18.082Z,100415.50
2022-10-16T05:06:45.680Z,100412.16
2022-10-16T05:09:13.011Z,100404.41
2022-10-16T05:11:40.361Z,100418.25
2022-10-16T05:14:08.051Z,100418.25
2022-10-16T05:16:35.441Z,100422.72
2022-10-16T05:19:26.277Z,100428.00
2022-10-16T05:21:50.403Z,100418.69
2022-10-16T05:24:17.723Z,100423.81
2022-10-16T05:26:45.060Z,100430.78
2022-10-16T05:29:13.006Z,100431.41
2022-10-16T05:31:40.368Z,100434.63
2022-10-16T05:34:07.690Z,100432.63
2022-10-16T05:36:35.522Z,100431.81
2022-10-16T05:39:03.023Z,100433.31
2022-10-16T05:41:30.340Z,100445.22
2022-10-16T05:43:57.914Z,100445.25
2022-10-16T05:46:25.272Z,100435.59
2022-10-16T05:48:54.244Z,100446.19
2022-10-16T05:51:21.922Z,100446.72
2022-10-16T05:53:49.229Z,100444.44
2022-10-16T05:56:16.919Z,100451.75
2022-10-16T05:58:45.561Z,100455.41
2022-10-16T06:01:15.513Z,100460.97
2022-10-16T06:03:43.194Z,100456.03
2022-10-16T06:06:12.492Z,100454.72
2022-10-16T06:08:40.734Z,100463.78
2022-10-16T06:11:11.100Z,100467.22
2022-10-16T06:13:38.463Z,100478.25
2022-10-16T06:16:06.225Z,100479.09
2022-10-16T06:18:33.869Z,100484.94
2022-10-16T06:21:01.278Z,100486.31
2022-10-16T06:23:30.025Z,100486.47
2022-10-16T06:26:05.981Z,100487.53
2022-10-16T06:28:33.928Z,100497.63
2022-10-16T06:31:05.609Z,100500.59
2022-10-16T06:33:36.376Z,100512.84
2022-10-16T06:36:09.254Z,100505.66
2022-10-16T06:38:36.971Z,100505.34
2022-10-16T06:41:05.561Z,100506.16
2022-10-16T06:43:33.326Z,100503.44
2022-10-16T06:46:01.334Z,100503.03
2022-10-16T06:48:32.155Z,100513.81
2022-10-16T06:51:00.882Z,100520.41
2022-10-16T06:53:39.587Z,100528.44
2022-10-16T06:56:17.205Z,100530.94
2022-10-16T06:58:44.981Z,100540.44
2022-10-16T07:01:13.274Z,100533.97
2022-10-16T07:03:42.853Z,100539.72
2022-10-16T07:06:13.438Z,100534.22
2022-10-16T07:08:42.481Z,100540.16
2022-10-16T07:11:12.884Z,100541.63
2022-10-16T07:13:41.499Z,100548.75
2022-10-16T07:16:10.203Z,100554.25
2022-10-16T07:18:39.963Z,100555.63
2022-10-16T07:21:08.725Z,100549.19
2022-10-16T07:23:36.051Z,100562.09
2022-10-16T07:26:04.842Z,100561.56
2022-10-16T07:28:33.239Z,100561.78
2022-10-16T07:31:08.818Z,100565.13
2022-10-16T07:33:36.439Z,100557.44
2022-10-16T07:36:04.032Z,100551.41
2022-10-16T07:38:32.817Z,100553.88
2022-10-16T07:41:01.933Z,100553.88
2022-10-16T07:43:29.461Z,100555.81
2022-10-16T07:45:58.300Z,100560.91
2022-10-16T07:48:29.751Z,100569.47
2022-10-16T07:51:05.548Z,100573.28
2022-10-16T07:53:33.972Z,100577.41
2022-10-16T07:56:06.847Z,100576.66
2022-10-16T07:58:35.360Z,100577.22
2022-10-16T08:01:06.296Z,100581.59
2022-10-16T08:03:34.220Z,100589.53
2022-10-16T08:06:01.842Z,100593.91
2022-10-16T08:08:29.825Z,100597.22
2022-10-16T08:10:57.656Z,100597.75
2022-10-16T08:13:24.984Z,100604.88
2022-10-16T08:15:52.319Z,100608.78
2022-10-16T08:18:19.904Z,100610.41
2022-10-16T08:20:47.234Z,100607.66
2022-10-16T08:23:15.054Z,100609.03
2022-10-16T08:25:42.768Z,100612.84
2022-10-16T08:28:11.330Z,100618.34
2022-10-16T08:30:38.726Z,100619.47
2022-10-16T08:33:07.479Z,100619.75
2022-10-16T08:35:34.804Z,100618.59
2022-10-16T08:38:04.810Z,100618.94
2022-10-16T08:40:34.369Z,100616.16
2022-10-16T08:43:20.422Z,100625.41
2022-10-16T08:46:20.233Z,100627.41
2022-10-16T08:48:52.895Z,100633.37
2022-10-16T08:51:33.265Z,100626.44
2022-10-16T08:54:07.203Z,100632.66
2022-10-16T08:56:34.829Z,100635.00
2022-10-16T08:59:03.226Z,100629.72
2022-10-16T09:01:39.613Z,100636.06
2022-10-16T09:04:19.894Z,100636.19
2022-10-16T09:06:49.614Z,100632.47
2022-10-16T09:09:32.471Z,100637.72
2022-10-16T09:12:22.035Z,100646.03
2022-10-16T09:15:14.108Z,100644.84
2022-10-16T09:17:59.458Z,100648.03
2022-10-16T09:20:42.260Z,100652.19
2022-10-16T09:23:15.751Z,100650.37
2022-10-16T09:25:48.716Z,100641.25
2022-10-16T09:28:18.031Z,100645.62
2022-10-16T09:30:46.459Z,100642.28
2022-10-16T09:33:14.954Z,100646.87
2022-10-16T09:35:45.677Z,100644.75
2022-10-16T09:38:34.017Z,100641.78
2022-10-16T09:41:03.825Z,100642.84
2022-10-16T09:44:02.795Z,100642.44
2022-10-16T09:46:32.742Z,100648.47
2022-10-16T09:49:02.893Z,100647.75
2022-10-16T09:51:38.158Z,100650.41
2022-10-16T09:54:20.427Z,100651.84
2022-10-16T09:56:52.761Z,100661.94
2022-10-16T09:59:25.049Z,100665.19
2022-10-16T10:01:56.186Z,100661.94
2022-10-16T10:04:25.073Z,100657.91
2022-10-16T10:06:54.094Z,100656.63
2022-10-16T10:09:29.282Z,100661.41
2022-10-16T10:12:04.309Z,100653.22
2022-10-16T10:14:53.316Z,100650.91
2022-10-16T10:17:23.469Z,100643.69
2022-10-16T10:20:02.308Z,100641.06
2022-10-16T10:22:46.593Z,100634.44
2022-10-16T10:25:13.845Z,100642.00
2022-10-16T10:27:47.369Z,100636.38
2022-10-16T10:30:38.517Z,100637.59
2022-10-16T10:33:15.170Z,100641.34
2022-10-16T10:35:59.256Z,100626.91
2022-10-16T10:38:35.689Z,100633.69
2022-10-16T10:41:34.435Z,100625.75
2022-10-16T10:44:26.353Z,100633.87
2022-10-16T10:47:02.294Z,100630.94
2022-10-16T10:49:52.902Z,100631.97
2022-10-16T10:52:47.989Z,100635.09
2022-10-16T10:55:46.735Z,100633.22
2022-10-16T10:58:26.171Z,100629.41
2022-10-16T11:01:12.794Z,100630.22
2022-10-16T11:03:59.022Z,100636.47
2022-10-16T11:06:47.324Z,100633.78
2022-10-16T11:09:21.863Z,100625.41
2022-10-16T11:11:55.938Z,100626.34
2022-10-16T11:14:32.947Z,100629.34
2022-10-16T11:17:05.631Z,100626.22
2022-10-16T11:19:41.320Z,100621.84
2022-10-16T11:22:47.557Z,100615.03
2022-10-16T11:25:22.313Z,100616.25
2022-10-16T11:28:11.115Z,100619.81
2022-10-16T11:30:47.234Z,100611.34
2022-10-16T11:33:41.745Z,100612.81
2022-10-16T11:36:21.140Z,100619.91
2022-10-16T11:38:52.234Z,100611.34
2022-10-16T11:41:27.652Z,100614.59
2022-10-16T11:44:32.942Z,100620.94
2022-10-16T11:50:18.857Z,100611.09
2022-10-16T11:52:51.922Z,100620.13
2022-10-16T11:55:22.348Z,100613.56
2022-10-16T11:57:53.193Z,100614.81
2022-10-16T12:00:20.634Z,100619.09
2022-10-16T12:03:21.014Z,100608.00
2022-10-16T12:06:26.119Z,100610.16
2022-10-16T12:08:54.886Z,100607.13
2022-10-16T12:11:37.082Z,100601.00
2022-10-16T12:14:08.273Z,100597.88
2022-10-16T12:16:38.734Z,100594.94
2022-10-16T12:19:17.080Z,100605.59
2022-10-16T12:21:45.211Z,100599.66
2022-10-16T12:24:35.435Z,100596.94
2022-10-16T12:27:03.713Z,100592.78
2022-10-16T12:29:38.119Z,100586.75
2022-10-16T12:32:41.836Z,100584.53
2022-10-16T12:35:19.245Z,100590.16
2022-10-16T12:37:46.722Z,100592.84
2022-10-16T12:40:23.952Z,100593.59
2022-10-16T12:42:51.498Z,100587.75
2022-10-16T12:45:24.957Z,100589.00
2022-10-16T12:47:54.911Z,100593.41
2022-10-16T12:50:37.456Z,100587.22
2022-10-16T12:53:19.525Z,100577.31
2022-10-16T12:56:02.828Z,100586.91
2022-10-16T12:59:05.346Z,100585.22
2022-10-16T13:02:03.578Z,100587.19
2022-10-16T13:04:58.080Z,100591.41
2022-10-16T13:07:31.363Z,100589.53
2022-10-16T13:10:03.919Z,100598.19
2022-10-16T13:12:41.752Z,100589.16
2022-10-16T13:15:30.997Z,100596.00
2022-10-16T13:18:41.777Z,100589.94
2022-10-16T13:21:33.435Z,100602.03
2022-10-16T13:24:09.697Z,100604.00
2022-10-16T13:26:46.224Z,100599.06
2022-10-16T13:29:15.345Z,100603.09
2022-10-16T13:31:44.011Z,100608.00
2022-10-16T13:34:16.820Z,100607.41
2022-10-16T13:36:52.271Z,100600.41
2022-10-16T13:39:28.175Z,100601.41
2022-10-16T13:42:06.392Z,100604.16
2022-10-16T13:44:51.117Z,100606.09
2022-10-16T13:47:24.776Z,100602.19
2022-10-16T13:50:01.671Z,100610.84
2022-10-16T13:52:29.618Z,100614.00
2022-10-16T13:55:00.932Z,100609.56
2022-10-16T13:57:29.923Z,100616.81
2022-10-16T13:59:57.242Z,100620.72
2022-10-16T14:02:31.517Z,100620.72
2022-10-16T14:04:59.784Z,100617.09
2022-10-16T14:07:34.186Z,100621.66
2022-10-16T14:10:07.461Z,100628.56
2022-10-16T14:12:35.593Z,100622.59
2022-10-16T14:15:03.822Z,100620.25
2022-10-16T14:17:34.166Z,100623.09
2022-10-16T14:20:06.635Z,100616.09
2022-10-16T14:22:36.369Z,100620.25
2022-10-16T14:25:20.807Z,100612.50
2022-10-16T14:28:17.593Z,100610.56
2022-10-16T14:30:56.792Z,100616.91
2022-10-16T14:33:30.765Z,100612.47
2022-10-16T14:36:10.180Z,100607.06
2022-10-16T14:38:39.356Z,100611.91
2022-10-16T14:41:07.432Z,100608.78
2022-10-16T14:43:35.572Z,100616.94
2022-10-16T14:46:06.612Z,100627.75
2022-10-16T14:48:34.020Z,100624.19
2022-10-16T14:51:01.411Z,100620.84
2022-10-16T14:53:29.020Z,100630.00
2022-10-16T14:55:56.353Z,100626.50
2022-10-16T14:58:24.525Z,100619.22
2022-10-16T15:00:52.099Z,100622.38
2022-10-16T15:03:19.477Z,100624.34
2022-10-16T15:05:46.823Z,100618.12
2022-10-16T15:08:14.445Z,100621.16
2022-10-16T15:10:44.171Z,100615.47
2022-10-16T15:13:14.063Z,100618.75
2022-10-16T15:15:44.882Z,100619.84
2022-10-16T15:18:12.399Z,100629.87
2022-10-16T15:20:40.425Z,100640.41
2022-10-16T15:23:16.618Z,100639.59
2022-10-16T15:25:49.515Z,100647.72
2022-10-16T15:28:17.889Z,100640.16
2022-10-16T15:30:48.283Z,100642.88
2022-10-16T15:33:21.135Z,100655.47
2022-10-16T15:35:52.813Z,100654.16
2022-10-16T15:38:22.955Z,100652.78
2022-10-16T15:40:50.901Z,100657.03
2022-10-16T15:43:19.771Z,100658.91
2022-10-16T15:46:07.690Z,100661.78
2022-10-16T15:48:35.350Z,100665.00
2022-10-16T15:51:06.652Z,100657.53
2022-10-16T15:53:35.199Z,100653.47
2022-10-16T15:56:08.079Z,100657.03
2022-10-16T15:58:35.413Z,100650.53
2022-10-16T16:01:04.588Z,100659.81
2022-10-16T16:03:32.737Z,100662.12
2022-10-16T16:06:05.464Z,100656.78
2022-10-16T16:08:34.029Z,100660.94
2022-10-16T16:11:03.184Z,100666.97
2022-10-16T16:13:30.542Z,100672.31
2022-10-16T16:15:58.115Z,100675.69
2022-10-16T16:18:25.509Z,100678.38
2022-10-16T16:20:53.308Z,100680.63
2022-10-16T16:23:21.067Z,100689.94
2022-10-16T16:26:26.901Z,100691.63
2022-10-16T16:28:55.341Z,100702.63
2022-10-16T16:31:25.946Z,100702.06
2022-10-16T16:33:54.276Z,100703.72
2022-10-16T16:36:21.711Z,100711.44
2022-10-16T16:38:49.119Z,100718.59
2022-10-16T16:41:21.815Z,100721.56
2022-10-16T16:43:49.767Z,100722.34
2022-10-16T16:46:17.427Z,100724.38
2022-10-16T16:48:45.460Z,100735.00
2022-10-16T16:51:20.294Z,100719.38
2022-10-16T16:53:52.516Z,100725.66
2022-10-16T16:56:21.354Z,100732.25
2022-10-16T16:58:50.734Z,100734.34
2022-10-16T17:01:20.199Z,100736.62
2022-10-16T17:03:51.711Z,100740.47
2022-10-16T17:06:24.503Z,100739.31
2022-10-16T17:08:52.526Z,100756.59
2022-10-16T17:11:23.033Z,100757.84
2022-10-16T17:13:55.533Z,100767.22
2022-10-16T17:16:27.765Z,100771.06
2022-10-16T17:18:55.637Z,100768.09
2022-10-16T17:21:23.649Z,100773.66
2022-10-16T17:23:53.505Z,100771.38
2022-10-16T17:26:21.446Z,100780.16
2022-10-16T17:28:53.526Z,100780.34
2022-10-16T17:31:24.294Z,100781.97
2022-10-16T17:33:52.441Z,100789.63
2022-10-16T17:36:22.512Z,100785.03
2022-10-16T17:38:50.984Z,100785.34
2022-10-16T17:41:24.041Z,100796.37
2022-10-16T17:43:52.949Z,100800.22
2022-10-16T17:46:22.367Z,100804.66
2022-10-16T17:48:52.705Z,100808.06
2022-10-16T17:51:24.051Z,100808.19
2022-10-16T17:53:57.751Z,100814.13
2022-10-16T17:56:26.774Z,100815.16
2022-10-16T17:58:56.505Z,100813.97
2022-10-16T18:01:27.094Z,100827.25
2022-10-16T18:03:57.888Z,100819.69
2022-10-16T18:06:26.298Z,100822.22
2022-10-16T18:08:55.565Z,100822.06
2022-10-16T18:11:23.769Z,100820.16
2022-10-16T18:13:55.448Z,100825.81
2022-10-16T18:16:24.688Z,100832.31
2022-10-16T18:18:52.772Z,100831.84
2022-10-16T18:21:20.960Z,100835.62
2022-10-16T18:23:51.875Z,100835.47
2022-10-16T18:26:21.142Z,100830.19
2022-10-16T18:28:51.258Z,100829.63
2022-10-16T18:31:22.204Z,100829.56
2022-10-16T18:33:52.929Z,100832.59
2022-10-16T18:36:23.372Z,100836.19
2022-10-16T18:38:51.546Z,100833.31
2022-10-16T18:41:19.653Z,100839.00
2022-10-16T18:43:47.838Z,100844.22
2022-10-16T18:46:21.889Z,100844.13
2022-10-16T18:48:51.720Z,100839.72
2022-10-16T18:51:28.047Z,100850.03
2022-10-16T18:54:03.484Z,100842.25
2022-10-16T18:56:32.631Z,100840.72
2022-10-16T18:59:04.525Z,100845.69
2022-10-16T19:01:35.190Z,100851.34
2022-10-16T19:04:10.172Z,100850.69
2022-10-16T19:06:43.855Z,100848.13
2022-10-16T19:09:12.853Z,100850.81
2022-10-16T19:11:42.022Z,100861.50
2022-10-16T19:14:12.029Z,100861.72
2022-10-16T19:16:40.460Z,100866.31
2022-10-16T19:19:15.377Z,100863.41
2022-10-16T19:21:43.795Z,100865.69
2022-10-16T19:24:15.044Z,100861.50
2022-10-16T19:26:43.724Z,100862.56
2022-10-16T19:29:11.651Z,100866.28
2022-10-16T19:31:39.245Z,100869.44
2022-10-16T19:34:07.685Z,100864.00
2022-10-16T19:36:37.299Z,100858.53
2022-10-16T19:39:15.057Z,100861.25
2022-10-16T19:41:42.939Z,100862.31
2022-10-16T19:44:13.153Z,100865.47
2022-10-16T19:46:40.924Z,100871.56
2022-10-16T19:49:11.053Z,100872.75
2022-10-16T19:51:39.177Z,100873.44
2022-10-16T19:54:09.233Z,100888.09
2022-10-16T19:56:37.515Z,100897.41
2022-10-16T19:59:06.274Z,100898.16
2022-10-16T20:01:34.318Z,100894.41
2022-10-16T20:04:04.878Z,100895.13
2022-10-16T20:06:32.472Z,100899.66
2022-10-16T20:09:00.169Z,100898.88
2022-10-16T20:11:30.412Z,100904.97
2022-10-16T20:13:58.290Z,100902.28
2022-10-16T20:16:27.101Z,100913.59
2022-10-16T20:18:55.318Z,100920.53
2022-10-16T20:21:30.057Z,100924.50
2022-10-16T20:24:00.134Z,100932.50
2022-10-16T20:26:27.653Z,100942.37
2022-10-16T20:28:55.368Z,100941.50
2022-10-16T20:31:26.798Z,100945.56
2022-10-16T20:33:56.835Z,100949.88
2022-10-16T20:36:25.939Z,100952.25
2022-10-16T20:38:53.488Z,100958.59
2022-10-16T20:41:21.049Z,100956.44
2022-10-16T20:43:50.058Z,100954.84
2022-10-16T20:46:19.891Z,100971.16
2022-10-16T20:48:47.473Z,100971.00
2022-10-16T20:51:20.519Z,100973.41
2022-10-16T20:53:51.708Z,100971.50
2022-10-16T20:56:19.299Z,100970.88
2022-10-16T20:58:46.607Z,100966.81
2022-10-16T21:01:16.336Z,100974.91
2022-10-16T21:03:44.781Z,100976.59
2022-10-16T21:06:12.271Z,100983.81
2022-10-16T21:08:41.248Z,100980.09
2022-10-16T21:11:17.980Z,100982.87
2022-10-16T21:13:45.872Z,100989.34
2022-10-16T21:16:14.816Z,100983.66
2022-10-16T21:18:44.692Z,100987.03
2022-10-16T21:21:30.850Z,100984.06
2022-10-16T21:23:59.160Z,100992.69
2022-10-16T21:26:27.757Z,101003.37
2022-10-16T21:28:59.996Z,100996.16
2022-10-16T21:31:28.079Z,101001.12
2022-10-16T21:33:56.553Z,100995.06
2022-10-16T21:36:26.255Z,100996.06
2022-10-16T21:38:54.469Z,100992.25
2022-10-16T21:41:26.995Z,100992.59
2022-10-16T21:43:56.156Z,100994.13
2022-10-16T21:46:25.862Z,101000.97
2022-10-16T21:48:54.438Z,100990.91
2022-10-16T21:51:51.675Z,100994.31
2022-10-16T21:54:21.196Z,100996.94
2022-10-16T21:56:48.860Z,101000.09
2022-10-16T21:59:16.397Z,101001.12
2022-10-16T22:01:43.974Z,100998.41
2022-10-16T22:04:12.736Z,101001.31
2022-10-16T22:06:40.507Z,101003.06
2022-10-16T22:09:08.670Z,101000.00
2022-10-16T22:11:37.598Z,101004.50
2022-10-16T22:14:07.284Z,101012.81
2022-10-16T22:16:34.692Z,101016.06
2022-10-16T22:19:03.720Z,101020.13
2022-10-16T22:21:32.410Z,101014.47
2022-10-16T22:24:00.602Z,101020.56
2022-10-16T22:26:28.277Z,101022.97
2022-10-16T22:28:56.148Z,101025.84
2022-10-16T22:31:23.957Z,101026.16
2022-10-16T22:33:58.824Z,101027.50
2022-10-16T22:36:26.802Z,101028.03
2022-10-16T22:38:54.668Z,101027.37
2022-10-16T22:41:22.541Z,101032.97
2022-10-16T22:43:50.233Z,101024.16
2022-10-16T22:46:20.209Z,101026.47
2022-10-16T22:48:47.538Z,101022.63
2022-10-16T22:51:16.897Z,101028.78
2022-10-16T22:53:46.570Z,101031.31
2022-10-16T22:56:15.396Z,101038.19
2022-10-16T22:58:42.868Z,101030.94
2022-10-16T23:01:32.253Z,101040.19
2022-10-16T23:04:01.508Z,101035.38
2022-10-16T23:06:29.593Z,101048.44
2022-10-16T23:08:58.819Z,101048.62
2022-10-16T23:11:27.319Z,101050.75
2022-10-16T23:13:55.154Z,101055.00
2022-10-16T23:16:22.985Z,101056.81
2022-10-16T23:18:50.768Z,101060.03
2022-10-16T23:21:21.380Z,101066.44
2022-10-16T23:23:49.043Z,101072.34
2022-10-16T23:26:19.053Z,101073.53
2022-10-16T23:28:46.988Z,101066.59
2022-10-16T23:31:15.079Z,101067.94
2022-10-16T23:33:42.937Z,101062.06
2022-10-16T23:36:13.008Z,101064.22
2022-10-16T23:38:40.573Z,101063.56
2022-10-16T23:41:09.657Z,101061.81
2022-10-16T23:43:37.289Z,101070.91
2022-10-16T23:46:05.990Z,101078.91
2022-10-16T23:48:33.396Z,101085.88
2022-10-16T23:51:01.244Z,101085.78
2022-10-16T23:53:28.551Z,101088.13
2022-10-16T23:55:56.052Z,101084.72
2022-10-16T23:58:24.372Z,101081.09
